If you wish to contribute or participate in the discussions about articles you are invited to join SKYbrary as a registered user

 Actions

Osaka International Airport

From SKYbrary Wiki

RJOO
Airport
ICAO: RJOO – IATA: ITM
Summary
Name Osaka International Airport
Region Asia and Pacific
Territory Japan JP.gif
Location Itami, Hyogo Prefecture
Serving Itami, Ikeda and Toyonaka
Elevation 11.887 m
39 ft11.887 m
Coordinates 34° 47' 2.44" N, 135° 26' 23.06" E
Runways
Designator Length Width Surface ROPS
14L/32R 1828 m5,997.375 ft
46 m150.919 ft
ASP yes/yes
14R/32L 2999 m9,839.239 ft
61 m200.131 ft
CON yes/yes


METAR
Observation RJOO 070300Z VRB01KT 9999 FEW030 SCT150 BKN/// 09/01 Q1024
Station Osaka International Airport
Date/Time 07 December 2019 03:00:00
Wind direction °
Wind speed 01 kts
Lowest cloud amount few clouds
Temperature 9°C
Dew point 1°C
Humidity 57%
QNH 1024 hPa
Weather condition n/a

Osaka International Airport is the primary domestic airport for the Kansai region of Japan, including the major cities of Osaka, Kyoto, and Kobe.

Climatology

Humid subtropical climate (Köppen climate classification Cfa).

Maps

Terrain

Loading map...

Airport Layout

Loading map...


Accidents & Serious Incidents at or in vicinity of RJOO

None on SKYbrary